Main page
METAR-TAF:

METAR-TAF

Airports :

Colmenar Viejo, Spain

latitude: 40-39N, longitude: 003-44W, elevation: -999 m

Current weather observation

The report was made 21 hours and 48 minutes ago, at 18:00 UTC
Wind 2 kt from variable directions
Temperature 8°C
Humidity 53%
Pressure 1012 hPa
Visibility 10 km or more
Few clouds at a height of 4000 ft

METAR: LECV 271800Z VRB02KT 9999 FEW040 08/M01 Q1012

Time: 16:48 (15:48 UTC)

Forecast

The report was made 1 hour and 48 minutes ago, at 14:00 UTC
Forecast valid from 28 at 15 UTC to 28 at 24 UTC
Wind 5 kt from variable directions
Visibility 10 km or more
Few clouds at a height of 4000 ft

TAF: LECV 281400Z 2815/2824 VRB05KT 9999 FEW040

Weather observations and forecasts of more than 4000 airports (METAR and TAF reports).

The available stations are represented by yellow and red dots on the map.

Hover mouse over dot to see the name of the station.

Then click to see weather observations and forecasts.

To change the map : click on the green buttons with a black cross to zoom in, on the green button with a dash to zoom out, or on the green arrows for adjacent maps.


METAR-TAF: